Time;durP1;ratioP1;P1;durP2;ratioP2;P2;SDS_P1;SDS_P2;PMS_P1;PMS_P2;Temp;Humidity;BMP_temperature;BMP_pressure;BME280_temperature;BME280_humidity;BME280_pressure;Samples;Min_cycle;Max_cycle;Signal;HPM_P1;HPM_P2
2023/11/04 00:02:54;;;;;;;1.95;0.98;;;16.00;76.80;;;;;;10412324;28;20033;-59
2023/11/04 00:07:55;;;;;;;1.55;0.75;;;16.00;76.80;;;;;;10412072;28;20044;-59
2023/11/04 00:12:57;;;;;;;2.58;1.00;;;16.00;76.80;;;;;;10411678;28;20029;-59
2023/11/04 00:17:57;;;;;;;1.40;0.57;;;16.00;76.90;;;;;;10411987;28;20431;-59
2023/11/04 00:22:58;;;;;;;2.47;1.33;;;16.00;77.00;;;;;;10411525;28;20032;-59
2023/11/04 00:28:01;;;;;;;1.52;0.52;;;16.00;77.00;;;;;;10411551;28;20025;-59
2023/11/04 00:33:01;;;;;;;1.58;0.60;;;16.00;76.90;;;;;;10423128;28;20132;-59
2023/11/04 00:38:02;;;;;;;2.22;0.75;;;16.00;76.80;;;;;;10411170;28;20040;-59
2023/11/04 00:43:03;;;;;;;1.70;0.60;;;16.00;76.80;;;;;;10410638;28;20030;-59
2023/11/04 00:48:04;;;;;;;1.63;0.90;;;15.90;76.80;;;;;;10410501;28;20032;-59
2023/11/04 00:53:04;;;;;;;2.08;0.80;;;16.00;76.90;;;;;;10410271;28;20026;-59
2023/11/04 00:58:05;;;;;;;1.27;0.65;;;15.90;76.90;;;;;;10409475;28;20472;-59
2023/11/04 01:03:06;;;;;;;1.52;0.65;;;16.00;76.90;;;;;;10409752;28;20033;-59
2023/11/04 01:08:07;;;;;;;2.13;0.90;;;15.90;76.80;;;;;;10409922;28;20021;-60
2023/11/04 01:13:07;;;;;;;2.05;0.80;;;15.90;76.90;;;;;;10409418;28;20033;-59
2023/11/04 01:18:08;;;;;;;1.35;0.63;;;15.90;76.90;;;;;;10409878;28;20064;-59
2023/11/04 01:23:09;;;;;;;1.27;0.50;;;15.90;76.90;;;;;;10409243;28;20093;-59
2023/11/04 01:28:10;;;;;;;1.52;0.47;;;15.90;76.80;;;;;;10409172;28;20025;-60
2023/11/04 01:33:10;;;;;;;2.03;0.50;;;15.90;76.80;;;;;;10409003;28;20684;-59
2023/11/04 01:38:11;;;;;;;1.45;0.80;;;15.90;76.60;;;;;;10409022;28;20041;-59
2023/11/04 01:43:29;;;;;;;2.08;0.68;;;15.90;76.80;;;;;;10408307;28;20036;-59
2023/11/04 01:48:30;;;;;;;0.40;0.20;;;15.90;76.80;;;;;;10408748;28;20037;-60
2023/11/04 01:53:32;;;;;;;2.90;0.80;;;15.90;76.70;;;;;;10407261;28;20083;-59
2023/11/04 01:58:35;;;;;;;2.35;0.43;;;15.80;76.80;;;;;;10407478;28;20037;-60
2023/11/04 02:03:36;;;;;;;1.20;0.60;;;15.80;76.60;;;;;;10407148;28;20091;-60
2023/11/04 02:08:37;;;;;;;1.20;0.52;;;15.90;76.60;;;;;;10414098;28;20057;-59
2023/11/04 02:13:37;;;;;;;0.98;0.30;;;15.90;76.70;;;;;;10416449;28;20040;-59
2023/11/04 02:18:38;;;;;;;1.30;0.40;;;15.80;76.80;;;;;;10416678;28;20029;-57
2023/11/04 02:23:39;;;;;;;2.58;0.47;;;15.80;76.60;;;;;;10416071;28;20033;-58
2023/11/04 02:28:39;;;;;;;1.58;0.60;;;15.90;76.80;;;;;;10418795;28;20485;-57
2023/11/04 02:33:41;;;;;;;2.78;0.50;;;15.80;76.70;;;;;;10425939;28;20024;-57
2023/11/04 02:38:42;;;;;;;1.95;0.60;;;15.80;76.60;;;;;;10415835;28;20049;-57
2023/11/04 02:43:42;;;;;;;0.38;0.20;;;15.80;76.60;;;;;;10415323;28;20033;-57
2023/11/04 02:48:43;;;;;;;1.23;0.50;;;15.80;76.70;;;;;;10415421;28;20029;-57
2023/11/04 02:53:44;;;;;;;1.45;0.60;;;15.80;76.70;;;;;;10414817;28;20521;-58
2023/11/04 02:58:44;;;;;;;1.52;0.50;;;15.80;76.70;;;;;;10413643;28;20423;-57
2023/11/04 03:03:45;;;;;;;0.95;0.45;;;15.80;76.50;;;;;;10414422;28;20033;-57
2023/11/04 03:08:46;;;;;;;0.93;0.40;;;15.70;76.60;;;;;;10414495;28;20079;-57
2023/11/04 03:13:47;;;;;;;0.52;0.30;;;15.80;76.70;;;;;;10413048;28;20477;-57
2023/11/04 03:18:48;;;;;;;1.25;0.88;;;15.70;76.50;;;;;;10413553;28;20384;-58
2023/11/04 03:23:48;;;;;;;1.65;0.70;;;15.80;76.70;;;;;;10413649;28;20045;-57
2023/11/04 03:28:49;;;;;;;0.98;0.40;;;15.70;76.60;;;;;;10413970;28;20550;-57
2023/11/04 03:33:50;;;;;;;1.30;0.57;;;15.70;76.50;;;;;;10413466;28;20068;-57
2023/11/04 03:38:51;;;;;;;0.45;0.30;;;15.70;76.60;;;;;;10413738;28;20063;-57
2023/11/04 03:43:52;;;;;;;0.52;0.40;;;15.70;76.60;;;;;;10412910;28;20109;-57
2023/11/04 03:48:52;;;;;;;2.50;0.65;;;15.70;76.50;;;;;;10413212;28;20365;-57
2023/11/04 03:53:53;;;;;;;0.88;0.40;;;15.70;76.60;;;;;;10412417;28;20385;-57
2023/11/04 03:58:54;;;;;;;0.93;0.43;;;15.70;76.60;;;;;;10412482;28;20224;-58
2023/11/04 04:03:55;;;;;;;1.60;0.65;;;15.70;76.60;;;;;;10411843;28;20459;-57
2023/11/04 04:08:55;;;;;;;1.30;0.55;;;15.70;76.60;;;;;;10412239;28;20026;-57
2023/11/04 04:13:56;;;;;;;0.75;0.40;;;15.70;76.60;;;;;;10411937;28;20030;-58
2023/11/04 04:18:57;;;;;;;1.00;0.30;;;15.70;76.60;;;;;;10411912;28;20025;-57
2023/11/04 04:23:58;;;;;;;1.38;0.50;;;15.70;76.60;;;;;;10411128;28;20592;-57
2023/11/04 04:28:59;;;;;;;0.75;0.40;;;15.70;76.50;;;;;;10415771;28;20045;-57
2023/11/04 04:33:59;;;;;;;0.70;0.38;;;15.70;76.60;;;;;;10418525;28;20104;-58
2023/11/04 04:39:00;;;;;;;1.40;0.75;;;15.70;76.50;;;;;;10411301;28;20060;-57
2023/11/04 04:44:02;;;;;;;0.88;0.43;;;15.60;76.50;;;;;;10410509;28;20033;-58
2023/11/04 04:49:03;;;;;;;2.28;0.60;;;15.60;76.60;;;;;;10410660;28;20056;-58
2023/11/04 04:54:05;;;;;;;0.45;0.30;;;15.70;76.50;;;;;;10410354;28;20112;-58
2023/11/04 04:59:07;;;;;;;0.80;0.63;;;15.60;76.50;;;;;;10410505;28;20551;-58
2023/11/04 05:04:08;;;;;;;0.93;0.50;;;15.70;76.50;;;;;;10409949;28;20026;-58
2023/11/04 05:09:09;;;;;;;1.23;0.40;;;15.70;76.60;;;;;;10408428;28;20026;-58
2023/11/04 05:14:09;;;;;;;0.68;0.45;;;15.60;76.60;;;;;;10408179;28;20030;-58
2023/11/04 05:19:10;;;;;;;1.55;0.50;;;15.70;76.60;;;;;;10409687;28;20484;-58
2023/11/04 05:24:11;;;;;;;1.40;0.50;;;15.60;76.60;;;;;;10409369;28;20459;-58
2023/11/04 05:29:11;;;;;;;1.02;0.30;;;15.60;76.60;;;;;;10416943;28;20037;-58
2023/11/04 05:34:12;;;;;;;0.73;0.30;;;15.60;76.50;;;;;;10413725;28;20029;-58
2023/11/04 05:39:13;;;;;;;0.32;0.32;;;15.60;76.50;;;;;;10409335;28;20513;-58
2023/11/04 05:44:14;;;;;;;1.10;0.45;;;15.70;76.40;;;;;;10407583;28;20036;-58
2023/11/04 05:49:15;;;;;;;1.45;0.30;;;15.90;75.90;;;;;;10408971;28;20048;-58
2023/11/04 05:54:15;;;;;;;1.05;0.40;;;16.20;74.90;;;;;;10407598;28;20033;-58
2023/11/04 05:59:16;;;;;;;1.23;0.60;;;16.50;74.00;;;;;;10408872;28;20075;-58
2023/11/04 06:04:17;;;;;;;0.95;0.35;;;16.70;73.10;;;;;;10408202;28;20038;-58
2023/11/04 06:09:17;;;;;;;1.05;0.40;;;16.90;72.30;;;;;;10408295;28;20018;-58
2023/11/04 06:14:18;;;;;;;0.52;0.30;;;17.10;71.70;;;;;;10408043;28;20030;-58
2023/11/04 06:19:19;;;;;;;0.68;0.30;;;17.20;71.50;;;;;;10408095;28;20550;-58
2023/11/04 06:24:20;;;;;;;1.30;0.40;;;17.40;71.30;;;;;;10407869;28;20106;-58
2023/11/04 06:29:21;;;;;;;1.45;0.38;;;17.40;71.10;;;;;;10408046;28;20049;-58
2023/11/04 06:34:21;;;;;;;7.35;0.73;;;17.50;71.00;;;;;;10407494;28;20566;-60
2023/11/04 06:39:22;;;;;;;6.28;0.77;;;17.50;71.20;;;;;;10407264;28;20048;-58
2023/11/04 06:44:23;;;;;;;4.93;0.98;;;17.60;72.00;;;;;;10407271;28;20026;-58
2023/11/04 06:49:23;;;;;;;11.43;2.08;;;17.70;71.80;;;;;;10408259;28;20029;-59
2023/11/04 06:54:24;;;;;;;9.98;1.17;;;17.80;72.80;;;;;;10411487;28;20083;-59
2023/11/04 06:59:25;;;;;;;9.13;1.00;;;18.00;72.10;;;;;;10415686;28;20037;-57
2023/11/04 07:04:26;;;;;;;11.65;2.70;;;18.10;72.20;;;;;;10414487;28;20041;-56
2023/11/04 07:09:26;;;;;;;9.43;1.20;;;18.00;73.20;;;;;;10414303;28;20083;-57
2023/11/04 07:14:27;;;;;;;11.02;1.02;;;18.10;72.60;;;;;;10414302;28;20029;-54
2023/11/04 07:19:28;;;;;;;10.55;1.13;;;18.10;71.70;;;;;;10413047;28;20062;-57
2023/11/04 07:24:28;;;;;;;7.32;0.90;;;18.10;72.50;;;;;;10431660;28;20520;-57
2023/11/04 07:29:29;;;;;;;12.02;1.33;;;18.00;72.70;;;;;;10438440;28;20591;-57
2023/11/04 07:34:31;;;;;;;11.77;1.50;;;17.90;73.00;;;;;;10416538;28;20029;-58
2023/11/04 07:39:34;;;;;;;12.48;2.25;;;17.80;73.20;;;;;;10411417;28;20041;-58
2023/11/04 07:44:39;;;;;;;6.40;1.55;;;17.80;73.70;;;;;;10411623;28;20469;-58
2023/11/04 07:49:39;;;;;;;9.98;1.40;;;17.80;73.90;;;;;;10412125;28;20484;-58
2023/11/04 07:54:40;;;;;;;10.27;1.20;;;17.70;74.20;;;;;;10443679;28;20080;-58
2023/11/04 07:59:41;;;;;;;10.35;1.58;;;17.70;74.00;;;;;;10411884;28;20484;-57
2023/11/04 08:04:42;;;;;;;24.35;3.17;;;17.50;74.20;;;;;;10410686;28;20044;-57
2023/11/04 08:09:42;;;;;;;20.83;2.33;;;17.60;74.30;;;;;;10411536;28;20500;-60
2023/11/04 08:14:43;;;;;;;17.02;2.42;;;17.50;74.40;;;;;;10410305;28;20037;-61
2023/11/04 08:19:44;;;;;;;23.23;4.35;;;17.40;74.50;;;;;;10410257;28;20042;-57
2023/11/04 08:24:45;;;;;;;21.30;2.70;;;17.40;75.00;;;;;;10409282;28;20028;-57
2023/11/04 08:29:45;;;;;;;7.40;2.22;;;17.30;75.80;;;;;;10412324;28;20051;-61
2023/11/04 08:34:46;;;;;;;15.05;2.53;;;17.30;75.20;;;;;;10412278;28;20383;-57
2023/11/04 08:39:47;;;;;;;23.48;3.25;;;17.20;75.70;;;;;;10407571;28;20428;-55
2023/11/04 08:44:47;;;;;;;25.20;2.40;;;17.00;76.60;;;;;;10399920;28;20376;-56
2023/11/04 08:49:48;;;;;;;22.95;5.38;;;17.10;76.20;;;;;;10404804;28;20545;-56
2023/11/04 08:54:50;;;;;;;28.13;4.18;;;17.20;76.00;;;;;;10402210;28;20522;-57
2023/11/04 08:59:51;;;;;;;23.42;3.60;;;17.10;76.10;;;;;;10406530;28;20029;-56
2023/11/04 09:04:51;;;;;;;16.15;2.70;;;17.10;75.90;;;;;;10408013;28;20029;-56
2023/11/04 09:09:52;;;;;;;19.58;3.25;;;17.00;76.30;;;;;;10417937;28;20519;-59
2023/11/04 09:14:53;;;;;;;22.50;3.10;;;16.90;76.60;;;;;;10409080;28;20507;-58
2023/11/04 09:19:54;;;;;;;19.67;2.30;;;17.00;76.00;;;;;;10409223;28;20537;-60
2023/11/04 09:24:54;;;;;;;19.77;3.40;;;17.00;75.70;;;;;;10408046;28;20029;-60
2023/11/04 09:29:55;;;;;;;17.40;3.97;;;17.00;76.10;;;;;;10428504;28;20059;-56
2023/11/04 09:34:56;;;;;;;11.38;2.60;;;17.00;76.20;;;;;;10409386;28;20030;-57
2023/11/04 09:39:57;;;;;;;8.60;2.00;;;16.90;75.90;;;;;;10407712;28;20021;-56
2023/11/04 09:44:58;;;;;;;16.48;2.30;;;16.90;75.80;;;;;;10407530;28;20048;-56
2023/11/04 09:49:59;;;;;;;9.55;2.15;;;16.90;76.10;;;;;;10408565;28;20095;-56
2023/11/04 09:55:04;;;;;;;26.33;2.65;;;16.80;76.30;;;;;;10408639;28;20112;-56
2023/11/04 10:00:09;;;;;;;10.90;2.05;;;16.90;75.90;;;;;;10405581;28;20022;-56
2023/11/04 10:05:10;;;;;;;8.93;1.60;;;16.90;75.20;;;;;;10407726;28;20044;-56
2023/11/04 10:10:11;;;;;;;8.10;1.63;;;17.00;75.20;;;;;;10405530;28;20028;-56
2023/11/04 10:15:12;;;;;;;15.52;3.40;;;16.90;75.30;;;;;;10410888;28;20034;-57
2023/11/04 10:20:14;;;;;;;5.57;1.75;;;17.00;74.80;;;;;;10411537;28;20607;-56
2023/11/04 10:25:15;;;;;;;7.00;1.77;;;16.90;74.90;;;;;;10408541;28;20036;-57
2023/11/04 10:30:16;;;;;;;9.95;1.90;;;16.90;75.00;;;;;;10415155;28;20408;-56
2023/11/04 10:35:18;;;;;;;11.93;2.20;;;16.80;75.10;;;;;;10423052;28;20045;-56
2023/11/04 10:40:21;;;;;;;6.95;2.28;;;16.90;75.10;;;;;;10411091;28;20129;-56
2023/11/04 10:46:02;;;;;;;6.10;2.10;;;16.90;74.80;;;;;;10413099;28;20037;-56
2023/11/04 10:51:34;;;;;;;11.00;2.33;;;16.90;74.80;;;;;;10413630;28;20028;-57
2023/11/04 10:56:46;;;;;;;12.43;1.88;;;16.90;74.80;;;;;;10413823;28;20025;-57
2023/11/04 11:01:49;;;;;;;14.57;2.88;;;17.00;75.20;;;;;;10412643;28;20042;-56
2023/11/04 11:06:51;;;;;;;13.38;2.80;;;16.90;75.50;;;;;;10412310;28;20477;-56
2023/11/04 11:12:06;;;;;;;22.60;4.72;;;16.90;75.90;;;;;;10411859;28;20029;-57
2023/11/04 11:17:07;;;;;;;15.13;2.92;;;16.90;75.60;;;;;;10412787;28;20524;-57
2023/11/04 11:22:08;;;;;;;18.02;3.20;;;16.80;75.80;;;;;;10413208;28;20037;-58
2023/11/04 11:27:08;;;;;;;21.60;3.90;;;16.90;75.30;;;;;;10412819;28;20036;-57
2023/11/04 11:32:09;;;;;;;15.50;2.92;;;17.00;74.30;;;;;;10411609;28;20061;-56
2023/11/04 11:37:10;;;;;;;12.68;2.13;;;17.00;74.20;;;;;;10412386;28;20034;-56
2023/11/04 11:42:13;;;;;;;9.30;2.50;;;17.00;74.40;;;;;;10411980;28;20060;-56
2023/11/04 11:47:13;;;;;;;12.25;2.15;;;17.10;74.10;;;;;;10411933;28;20060;-56
2023/11/04 11:52:14;;;;;;;24.05;3.65;;;17.10;73.80;;;;;;10412044;28;20048;-57
2023/11/04 11:57:15;;;;;;;15.65;3.50;;;17.20;74.30;;;;;;10409282;28;20124;-59
2023/11/04 12:02:16;;;;;;;15.68;4.32;;;17.30;75.00;;;;;;10411932;28;20033;-60
2023/11/04 12:07:17;;;;;;;19.92;2.97;;;17.30;75.20;;;;;;10409522;28;20108;-60
2023/11/04 12:12:18;;;;;;;13.65;2.53;;;17.40;75.70;;;;;;10411584;28;20038;-59
2023/11/04 12:17:19;;;;;;;14.20;3.33;;;17.40;75.10;;;;;;10409910;28;20037;-59
2023/11/04 12:22:25;;;;;;;17.45;2.38;;;17.40;75.60;;;;;;10410181;28;20056;-60
2023/11/04 12:27:26;;;;;;;15.45;2.83;;;17.40;74.90;;;;;;10410196;28;20704;-59
2023/11/04 12:32:28;;;;;;;24.10;3.22;;;17.30;75.30;;;;;;10421309;28;20037;-56
2023/11/04 12:37:30;;;;;;;18.30;4.38;;;17.30;75.40;;;;;;10399467;28;20025;-56
2023/11/04 12:42:30;;;;;;;15.40;2.75;;;17.20;75.70;;;;;;10406079;28;20080;-55
2023/11/04 12:47:31;;;;;;;22.52;3.78;;;17.20;76.10;;;;;;10406465;28;20084;-53
2023/11/04 12:52:33;;;;;;;17.63;2.65;;;17.20;76.10;;;;;;10406526;28;20092;-55
2023/11/04 12:57:33;;;;;;;12.60;2.70;;;17.10;76.20;;;;;;10408531;28;20037;-57
2023/11/04 13:02:35;;;;;;;16.65;3.10;;;16.90;76.30;;;;;;10392268;28;20034;-54
2023/11/04 13:07:36;;;;;;;18.60;3.25;;;16.90;76.60;;;;;;10401100;28;20556;-55
2023/11/04 13:12:37;;;;;;;9.43;2.53;;;16.90;76.40;;;;;;10406881;28;20041;-55
2023/11/04 13:17:38;;;;;;;10.02;3.08;;;16.80;76.30;;;;;;10401779;28;20040;-55
2023/11/04 13:22:39;;;;;;;15.02;2.60;;;16.90;76.80;;;;;;10406825;28;20030;-56
2023/11/04 13:27:40;;;;;;;17.00;2.10;;;16.90;76.70;;;;;;10400758;28;20033;-55
2023/11/04 13:32:41;;;;;;;18.00;3.65;;;16.90;76.70;;;;;;10406669;28;20045;-55
2023/11/04 13:37:41;;;;;;;12.00;1.98;;;16.90;76.70;;;;;;10398024;28;20029;-55
2023/11/04 13:42:42;;;;;;;14.45;2.67;;;16.80;76.70;;;;;;10397922;28;20033;-55
2023/11/04 13:47:44;;;;;;;15.60;2.17;;;16.80;76.80;;;;;;10399393;28;20040;-59
2023/11/04 13:52:44;;;;;;;17.27;2.55;;;16.80;76.70;;;;;;10404960;28;20033;-60
2023/11/04 13:57:45;;;;;;;15.20;2.15;;;16.80;76.90;;;;;;10406848;28;20037;-59
2023/11/04 14:02:46;;;;;;;9.40;1.75;;;16.90;76.80;;;;;;10427723;28;20049;-60
2023/11/04 14:07:47;;;;;;;9.13;2.00;;;17.00;77.10;;;;;;10431138;28;20025;-59
2023/11/04 14:12:47;;;;;;;11.50;3.03;;;16.90;76.10;;;;;;10434926;28;20449;-57
2023/11/04 14:17:48;;;;;;;7.82;2.35;;;17.00;76.40;;;;;;10435802;28;20025;-59
2023/11/04 14:22:49;;;;;;;6.97;2.03;;;17.00;76.30;;;;;;10424003;28;20044;-58
2023/11/04 14:27:50;;;;;;;11.40;2.03;;;16.90;76.20;;;;;;10418858;28;20689;-56
2023/11/04 14:32:51;;;;;;;12.27;2.67;;;17.00;76.40;;;;;;10427419;28;20057;-57
2023/11/04 14:37:51;;;;;;;10.02;2.00;;;17.00;76.10;;;;;;10415223;28;20456;-57
2023/11/04 14:42:52;;;;;;;10.20;2.17;;;17.10;76.20;;;;;;10415115;28;20052;-61
2023/11/04 14:47:53;;;;;;;12.07;2.42;;;16.90;76.10;;;;;;10415353;28;20059;-61
2023/11/04 14:52:53;;;;;;;6.90;1.58;;;16.90;76.70;;;;;;10413692;28;20500;-60
2023/11/04 14:57:54;;;;;;;14.52;2.08;;;16.90;76.60;;;;;;10412165;28;20377;-61
2023/11/04 15:02:55;;;;;;;8.77;1.38;;;16.90;76.20;;;;;;10412620;28;20021;-61
2023/11/04 15:07:56;;;;;;;6.13;1.40;;;17.00;76.30;;;;;;10411623;28;20494;-59
2023/11/04 15:12:56;;;;;;;12.25;1.83;;;17.10;76.20;;;;;;10441264;28;20060;-58
2023/11/04 15:17:58;;;;;;;5.28;1.52;;;17.00;76.10;;;;;;10411084;28;20026;-59
2023/11/04 15:22:58;;;;;;;11.05;1.83;;;17.00;76.10;;;;;;10410577;28;20033;-59
2023/11/04 15:27:59;;;;;;;7.88;1.30;;;17.00;75.80;;;;;;10413011;28;20018;-59
2023/11/04 15:32:59;;;;;;;24.50;2.20;;;17.10;75.70;;;;;;10411301;28;20058;-58
2023/11/04 15:38:00;;;;;;;7.50;1.20;;;17.20;75.80;;;;;;10412284;28;20653;-58
2023/11/04 15:43:01;;;;;;;10.43;1.58;;;17.20;75.90;;;;;;10408273;28;20540;-59
2023/11/04 15:48:03;;;;;;;7.05;1.88;;;17.10;75.80;;;;;;10411765;28;20025;-58
2023/11/04 15:53:04;;;;;;;7.97;1.73;;;17.00;75.80;;;;;;10409656;28;20033;-60
2023/11/04 15:58:05;;;;;;;10.02;2.17;;;17.00;76.10;;;;;;10411803;28;20095;-59
2023/11/04 16:03:06;;;;;;;12.30;2.25;;;17.00;75.90;;;;;;10410775;28;20021;-58
2023/11/04 16:08:07;;;;;;;14.18;1.80;;;17.00;76.10;;;;;;10411118;28;20071;-58
2023/11/04 16:13:09;;;;;;;10.40;1.48;;;17.10;76.00;;;;;;10409323;28;20036;-59
2023/11/04 16:18:09;;;;;;;11.02;1.30;;;17.30;75.80;;;;;;10409857;28;20102;-58
2023/11/04 16:23:10;;;;;;;9.68;1.65;;;17.50;75.70;;;;;;10410111;28;20038;-59
2023/11/04 16:28:11;;;;;;;10.02;1.60;;;17.70;77.10;;;;;;10408491;28;20033;-60
2023/11/04 16:33:12;;;;;;;10.13;2.33;;;17.80;75.80;;;;;;10411854;28;20493;-59
2023/11/04 16:38:12;;;;;;;7.93;2.22;;;17.70;77.30;;;;;;10411035;28;20033;-58
2023/11/04 16:43:13;;;;;;;10.30;2.80;;;17.70;78.70;;;;;;10409705;28;20025;-58
2023/11/04 16:48:18;;;;;;;9.90;2.13;;;17.80;78.30;;;;;;10406992;28;20054;-57
2023/11/04 16:53:20;;;;;;;12.25;2.42;;;17.90;77.80;;;;;;10412646;28;20491;-58
2023/11/04 16:58:21;;;;;;;11.40;2.65;;;17.90;78.30;;;;;;10412136;28;20033;-58
2023/11/04 17:03:22;;;;;;;8.48;2.65;;;18.00;79.10;;;;;;10427020;28;20061;-57
2023/11/04 17:08:23;;;;;;;12.10;2.45;;;18.00;79.20;;;;;;10408045;28;20036;-58
2023/11/04 17:13:26;;;;;;;62.25;57.90;;;18.30;77.70;;;;;;10408781;28;20030;-57
2023/11/04 17:18:26;;;;;;;22.25;20.65;;;18.40;77.20;;;;;;10407823;28;20490;-57
2023/11/04 17:23:28;;;;;;;20.25;18.55;;;18.30;77.50;;;;;;10408729;28;20021;-58
2023/11/04 17:28:29;;;;;;;22.63;20.13;;;18.20;78.50;;;;;;10410319;28;20036;-58
2023/11/04 17:33:30;;;;;;;21.75;19.63;;;18.10;77.90;;;;;;10407574;28;20045;-55
2023/11/04 17:38:31;;;;;;;31.70;29.40;;;17.90;77.90;;;;;;10407581;28;20025;-55
2023/11/04 17:43:32;;;;;;;21.02;18.92;;;17.90;77.90;;;;;;10439838;28;20096;-55
2023/11/04 17:48:33;;;;;;;38.15;26.25;;;17.80;77.90;;;;;;10408534;28;20476;-53
2023/11/04 17:53:34;;;;;;;27.17;18.95;;;17.80;78.40;;;;;;10387151;28;20041;-54
2023/11/04 17:58:35;;;;;;;23.33;19.65;;;17.70;78.00;;;;;;10387081;28;20033;-55
2023/11/04 18:03:35;;;;;;;23.60;21.08;;;17.50;78.40;;;;;;10394315;28;20041;-55
2023/11/04 18:08:36;;;;;;;20.83;18.60;;;17.30;78.90;;;;;;10399377;28;20038;-54
2023/11/04 18:13:37;;;;;;;39.67;20.50;;;17.20;78.90;;;;;;10404908;28;20083;-55
2023/11/04 18:18:38;;;;;;;21.80;19.90;;;17.20;78.80;;;;;;10407526;28;20026;-55
2023/11/04 18:23:39;;;;;;;19.80;18.00;;;17.20;79.00;;;;;;10405810;28;20028;-55
2023/11/04 18:28:40;;;;;;;20.55;18.40;;;17.10;78.80;;;;;;10406446;28;20025;-55
2023/11/04 18:33:40;;;;;;;20.52;18.40;;;17.10;78.90;;;;;;10405670;28;20477;-54
2023/11/04 18:38:41;;;;;;;19.98;18.13;;;17.10;78.80;;;;;;10407161;28;20029;-55
2023/11/04 18:43:43;;;;;;;19.17;17.58;;;17.10;78.50;;;;;;10406753;28;20036;-55
2023/11/04 18:48:44;;;;;;;20.25;18.30;;;17.10;78.70;;;;;;10402620;28;21025;-55
2023/11/04 18:53:45;;;;;;;19.92;17.77;;;17.00;78.40;;;;;;10409895;28;20033;-53
2023/11/04 18:58:46;;;;;;;43.70;39.22;;;17.00;78.40;;;;;;10413722;28;20110;-56
2023/11/04 19:03:47;;;;;;;18.13;16.15;;;17.00;79.50;;;;;;10410097;28;20475;-55
2023/11/04 19:08:47;;;;;;;16.30;14.98;;;17.00;78.90;;;;;;10431951;28;20040;-56
2023/11/04 19:13:49;;;;;;;16.58;15.07;;;16.90;78.60;;;;;;10411552;28;20060;-55
2023/11/04 19:18:49;;;;;;;17.02;15.35;;;16.80;78.80;;;;;;10413873;28;20457;-55
2023/11/04 19:23:50;;;;;;;17.17;15.48;;;16.80;79.00;;;;;;10414527;28;20025;-55
2023/11/04 19:28:51;;;;;;;15.90;14.52;;;16.80;79.10;;;;;;10413428;28;20030;-56
2023/11/04 19:33:52;;;;;;;16.70;15.25;;;16.80;79.20;;;;;;10406784;28;20101;-56
2023/11/04 19:38:53;;;;;;;16.70;15.30;;;16.80;79.30;;;;;;10405725;28;20637;-55
2023/11/04 19:43:54;;;;;;;15.98;14.35;;;16.80;79.20;;;;;;10410943;28;20022;-55
2023/11/04 19:48:55;;;;;;;16.45;14.55;;;16.80;78.80;;;;;;10411531;28;20373;-55
2023/11/04 19:53:56;;;;;;;15.95;14.35;;;16.80;78.70;;;;;;10412152;28;20864;-55
2023/11/04 19:58:57;;;;;;;15.65;12.93;;;16.80;78.70;;;;;;10410632;28;20136;-56
2023/11/04 20:03:59;;;;;;;15.98;14.25;;;16.80;78.80;;;;;;10406495;28;20096;-56
2023/11/04 20:09:00;;;;;;;30.02;20.20;;;16.80;78.80;;;;;;10410255;28;20029;-56
2023/11/04 20:14:01;;;;;;;35.30;23.63;;;16.80;78.60;;;;;;10411226;28;20079;-56
2023/11/04 20:19:03;;;;;;;32.22;25.00;;;16.80;78.60;;;;;;10411716;28;20034;-57
2023/11/04 20:24:04;;;;;;;30.33;22.38;;;16.70;78.70;;;;;;10410033;28;20047;-57
2023/11/04 20:29:05;;;;;;;31.02;22.23;;;16.70;78.90;;;;;;10417620;28;20051;-57
2023/11/04 20:34:08;;;;;;;33.38;22.83;;;16.60;79.00;;;;;;10416957;28;20028;-56
2023/11/04 20:39:08;;;;;;;34.53;23.80;;;16.60;79.10;;;;;;10410544;28;20029;-55
2023/11/04 20:44:10;;;;;;;25.67;18.98;;;16.60;79.20;;;;;;10411030;28;20033;-57
2023/11/04 20:49:12;;;;;;;24.38;20.25;;;16.50;79.10;;;;;;10410422;28;20029;-56
2023/11/04 20:54:12;;;;;;;25.00;20.02;;;16.50;79.20;;;;;;10410214;28;20033;-57
2023/11/04 20:59:15;;;;;;;24.50;18.85;;;16.50;79.20;;;;;;10408720;28;20036;-57
2023/11/04 21:04:16;;;;;;;27.65;19.02;;;16.50;79.20;;;;;;10409951;28;20064;-56
2023/11/04 21:09:16;;;;;;;23.10;17.95;;;16.50;79.20;;;;;;10409148;28;20385;-56
2023/11/04 21:14:17;;;;;;;22.10;18.40;;;16.40;79.20;;;;;;10408912;28;20032;-56
2023/11/04 21:19:18;;;;;;;22.35;18.73;;;16.40;79.20;;;;;;10408925;28;20099;-57
2023/11/04 21:24:19;;;;;;;23.02;17.65;;;16.40;79.20;;;;;;10409323;28;20021;-57
2023/11/04 21:29:19;;;;;;;23.10;17.45;;;16.40;79.20;;;;;;10417195;28;20052;-56
2023/11/04 21:34:20;;;;;;;20.55;16.90;;;16.40;79.20;;;;;;10412199;28;20018;-56
2023/11/04 21:39:26;;;;;;;23.10;17.45;;;16.40;79.20;;;;;;10408771;28;20033;-56
2023/11/04 21:44:27;;;;;;;22.25;16.83;;;16.30;79.10;;;;;;10408652;28;20033;-57
2023/11/04 21:49:28;;;;;;;18.35;15.48;;;16.30;79.10;;;;;;10408235;28;20388;-56
2023/11/04 21:54:29;;;;;;;20.17;15.77;;;16.30;79.10;;;;;;10407732;28;20576;-57
2023/11/04 21:59:32;;;;;;;18.77;15.73;;;16.30;79.10;;;;;;10407092;28;20037;-59
2023/11/04 22:04:33;;;;;;;16.65;14.95;;;16.30;79.00;;;;;;10407989;28;20057;-57
2023/11/04 22:09:34;;;;;;;17.60;14.13;;;16.30;79.00;;;;;;10407537;28;20469;-57
2023/11/04 22:14:34;;;;;;;17.30;14.35;;;16.30;79.00;;;;;;10408407;28;20029;-57
2023/11/04 22:19:35;;;;;;;20.27;14.55;;;16.20;79.00;;;;;;10407441;28;20060;-57
2023/11/04 22:24:36;;;;;;;15.93;14.13;;;16.20;78.90;;;;;;10412618;28;20036;-58
2023/11/04 22:29:37;;;;;;;15.98;13.27;;;16.20;78.90;;;;;;10415496;28;20048;-57
2023/11/04 22:34:37;;;;;;;17.50;12.77;;;16.20;78.90;;;;;;10414414;28;20064;-58
2023/11/04 22:39:38;;;;;;;15.88;13.75;;;16.20;78.90;;;;;;10415107;28;20029;-57
2023/11/04 22:44:39;;;;;;;16.08;13.40;;;16.20;78.90;;;;;;10415322;28;20022;-57
2023/11/04 22:49:39;;;;;;;19.90;12.10;;;16.20;78.90;;;;;;10415149;28;20611;-58
2023/11/04 22:54:40;;;;;;;14.70;13.05;;;16.20;78.90;;;;;;10413658;28;20079;-58
2023/11/04 22:59:41;;;;;;;14.18;12.38;;;16.20;78.90;;;;;;10414344;28;20029;-58
2023/11/04 23:04:42;;;;;;;12.70;11.30;;;16.20;78.90;;;;;;10413641;28;20551;-56
2023/11/04 23:09:43;;;;;;;15.30;12.95;;;16.20;78.90;;;;;;10411144;28;20472;-57
2023/11/04 23:14:44;;;;;;;14.65;11.70;;;16.20;78.80;;;;;;10412146;28;20527;-57
2023/11/04 23:19:44;;;;;;;15.75;12.82;;;16.20;78.80;;;;;;10410790;28;20073;-58
2023/11/04 23:24:45;;;;;;;12.85;11.20;;;16.10;78.80;;;;;;10409650;28;20041;-58
2023/11/04 23:29:46;;;;;;;11.98;10.88;;;16.10;78.80;;;;;;10421915;28;20103;-58
2023/11/04 23:34:46;;;;;;;13.02;11.80;;;16.10;78.80;;;;;;10406836;28;20532;-56
2023/11/04 23:39:48;;;;;;;12.00;10.57;;;16.10;78.80;;;;;;10407369;28;20504;-57
2023/11/04 23:44:49;;;;;;;11.98;10.73;;;16.10;78.80;;;;;;10407672;28;20037;-58
2023/11/04 23:49:49;;;;;;;16.20;11.80;;;16.10;78.80;;;;;;10407907;28;20090;-57
2023/11/04 23:54:51;;;;;;;11.85;10.70;;;16.10;78.80;;;;;;10408477;28;20400;-58
2023/11/04 23:59:51;;;;;;;12.40;9.68;;;16.10;78.80;;;;;;10406648;28;20147;-58
